createdAt,value
2018-02-14T00:00:47.570Z,99.99
2018-02-14T00:01:47.300Z,99.99
2018-02-14T00:02:47.539Z,99.99
2018-02-14T00:03:47.258Z,99.99
2018-02-14T00:04:47.244Z,99.99
2018-02-14T00:05:47.231Z,99.99
2018-02-14T00:06:47.205Z,99.99
2018-02-14T00:07:47.191Z,99.99
2018-02-14T00:08:47.422Z,99.99
2018-02-14T00:09:47.403Z,99.99
2018-02-14T00:10:47.384Z,99.99
2018-02-14T00:11:47.370Z,99.99
2018-02-14T00:12:47.349Z,99.99
2018-02-14T00:13:47.332Z,99.99
2018-02-14T00:14:47.313Z,99.99
2018-02-14T00:15:47.299Z,99.99
2018-02-14T00:16:47.278Z,99.99
2018-02-14T00:17:47.271Z,99.99
2018-02-14T00:18:47.240Z,99.99
2018-02-14T00:19:46.969Z,99.99
2018-02-14T00:20:47.213Z,99.99
2018-02-14T00:21:47.188Z,99.99
2018-02-14T00:22:46.916Z,99.99
2018-02-14T00:23:47.149Z,99.99
2018-02-14T00:24:47.129Z,99.99
2018-02-14T00:25:46.867Z,99.99
2018-02-14T00:26:47.096Z,99.99
2018-02-14T00:27:47.078Z,99.99
2018-02-14T00:28:47.060Z,99.99
2018-02-14T00:29:46.788Z,99.99
2018-02-14T00:30:46.768Z,99.99
2018-02-14T00:31:46.751Z,99.99
2018-02-14T00:32:46.986Z,99.99
2018-02-14T00:33:46.721Z,99.99
2018-02-14T00:34:46.698Z,99.99
2018-02-14T00:35:46.678Z,99.99
2018-02-14T00:36:46.660Z,99.99
2018-02-14T00:37:46.642Z,99.99
2018-02-14T00:38:46.622Z,99.99
2018-02-14T00:39:46.617Z,99.99
2018-02-14T00:40:46.591Z,99.99
2018-02-14T00:41:46.570Z,99.99
2018-02-14T00:42:46.553Z,99.99
2018-02-14T00:43:46.788Z,99.99
2018-02-14T00:44:46.772Z,99.99
2018-02-14T00:45:46.747Z,99.99
2018-02-14T00:46:46.477Z,99.99
2018-02-14T00:47:46.461Z,99.99
2018-02-14T00:48:46.702Z,99.99
2018-02-14T00:49:46.682Z,99.99
2018-02-14T00:50:46.403Z,99.99
2018-02-14T00:51:46.388Z,99.99
2018-02-14T00:52:46.370Z,99.99
2018-02-14T00:53:46.350Z,99.99
2018-02-14T00:54:46.332Z,99.99
2018-02-14T00:55:46.315Z,99.99
2018-02-14T00:56:46.297Z,99.99
2018-02-14T00:57:46.278Z,99.99
2018-02-14T00:58:46.514Z,99.99
2018-02-14T00:59:46.243Z,99.99
2018-02-14T01:00:46.476Z,99.99
2018-02-14T01:01:46.464Z,99.99
2018-02-14T01:02:46.440Z,99.99
2018-02-14T01:03:46.421Z,99.99
2018-02-14T01:04:46.401Z,99.99
2018-02-14T01:05:46.387Z,99.99
2018-02-14T01:06:46.115Z,99.99
2018-02-14T01:07:46.353Z,99.99
2018-02-14T01:08:46.336Z,99.99
2018-02-14T01:09:46.058Z,99.99
2018-02-14T01:10:46.295Z,99.99
2018-02-14T01:11:46.274Z,99.99
2018-02-14T01:12:46.021Z,99.99
2018-02-14T01:13:45.987Z,99.99
2018-02-14T01:14:46.222Z,99.99
2018-02-14T01:15:46.204Z,99.99
2018-02-14T01:16:46.184Z,99.99
2018-02-14T01:17:45.940Z,99.99
2018-02-14T01:18:46.147Z,99.99
2018-02-14T01:19:46.130Z,99.99
2018-02-14T01:20:46.115Z,99.99
2018-02-14T01:21:46.094Z,99.99
2018-02-14T01:22:46.075Z,99.99
2018-02-14T01:23:46.056Z,99.99
2018-02-14T01:24:45.785Z,99.99
2018-02-14T01:25:46.019Z,99.99
2018-02-14T01:26:46.009Z,99.99
2018-02-14T01:27:45.730Z,99.99
2018-02-14T01:28:45.710Z,99.99
2018-02-14T01:29:45.946Z,99.99
2018-02-14T01:30:45.929Z,99.99
2018-02-14T01:31:45.915Z,99.99
2018-02-14T01:32:45.890Z,99.99
2018-02-14T01:33:45.872Z,99.99
2018-02-14T01:34:45.851Z,99.99
2018-02-14T01:35:45.837Z,99.99
2018-02-14T01:36:45.819Z,99.99
2018-02-14T01:37:45.797Z,99.99
2018-02-14T01:38:45.787Z,99.99
2018-02-14T01:39:45.765Z,99.99
2018-02-14T01:40:45.742Z,99.99
2018-02-14T01:41:45.729Z,99.99
2018-02-14T01:42:45.706Z,99.99
2018-02-14T01:43:45.697Z,99.99
2018-02-14T01:44:45.673Z,99.99
2018-02-14T01:45:45.400Z,99.99
2018-02-14T01:46:45.635Z,99.99
2018-02-14T01:47:45.365Z,99.99
2018-02-14T01:48:45.599Z,99.99
2018-02-14T01:49:45.326Z,99.99
2018-02-14T01:50:45.559Z,99.99
2018-02-14T01:51:45.541Z,99.99
2018-02-14T01:52:45.523Z,99.99
2018-02-14T01:53:45.252Z,99.99
2018-02-14T01:54:45.233Z,99.99
2018-02-14T01:55:45.464Z,99.99
2018-02-14T01:56:45.197Z,99.99
2018-02-14T01:57:45.434Z,99.99
2018-02-14T01:58:45.414Z,99.99
2018-02-14T01:59:45.392Z,99.99
2018-02-14T02:00:45.375Z,99.99
2018-02-14T02:01:45.368Z,99.99
2018-02-14T02:02:45.337Z,99.99
2018-02-14T02:03:45.068Z,99.99
2018-02-14T02:04:45.300Z,99.99
2018-02-14T02:05:45.029Z,99.99
2018-02-14T02:06:45.264Z,99.99
2018-02-14T02:07:45.249Z,99.99
2018-02-14T02:08:45.306Z,99.99
2018-02-14T02:09:44.962Z,99.99
2018-02-14T02:10:44.935Z,99.99
2018-02-14T02:11:45.173Z,99.99
2018-02-14T02:12:44.899Z,99.99
2018-02-14T02:13:45.135Z,99.99
2018-02-14T02:14:45.119Z,99.99
2018-02-14T02:15:45.100Z,99.99
2018-02-14T02:16:45.089Z,99.99
2018-02-14T02:17:45.064Z,99.99
2018-02-14T02:18:45.042Z,99.99
2018-02-14T02:19:45.025Z,99.99
2018-02-14T02:20:44.754Z,99.99
2018-02-14T02:21:44.985Z,99.99
2018-02-14T02:22:44.971Z,99.99
2018-02-14T02:23:44.952Z,99.99
2018-02-14T02:24:44.935Z,99.99
2018-02-14T02:25:44.917Z,99.99
2018-02-14T02:26:44.642Z,99.99
2018-02-14T02:27:44.875Z,99.99
2018-02-14T02:28:44.857Z,99.99
2018-02-14T02:29:44.842Z,99.99
2018-02-14T02:30:44.835Z,99.99
2018-02-14T02:31:44.802Z,99.99
2018-02-14T02:32:44.787Z,99.99
2018-02-14T02:33:44.769Z,99.99
2018-02-14T02:34:44.751Z,99.99
2018-02-14T02:35:44.474Z,99.99
2018-02-14T02:36:44.715Z,99.99
2018-02-14T02:37:44.692Z,99.99
2018-02-14T02:38:44.680Z,99.99
2018-02-14T02:39:44.654Z,99.99
2018-02-14T02:40:44.642Z,99.99
2018-02-14T02:41:44.620Z,99.99
2018-02-14T02:42:44.344Z,99.99
2018-02-14T02:43:44.579Z,99.99
2018-02-14T02:44:44.572Z,99.99
2018-02-14T02:45:44.544Z,99.99
2018-02-14T02:46:44.524Z,99.99
2018-02-14T02:47:44.508Z,99.99
2018-02-14T02:48:44.494Z,99.99
2018-02-14T02:49:44.476Z,99.99
2018-02-14T02:50:44.453Z,99.99
2018-02-14T02:51:44.432Z,99.99
2018-02-14T02:52:44.161Z,99.99
2018-02-14T02:53:44.399Z,99.99
2018-02-14T02:54:44.375Z,99.99
2018-02-14T02:55:44.366Z,99.99
2018-02-14T02:56:44.342Z,99.99
2018-02-14T02:57:44.320Z,99.99
2018-02-14T02:58:44.310Z,99.99
2018-02-14T02:59:44.283Z,99.99
2018-02-14T03:00:44.266Z,99.99
2018-02-14T03:01:44.247Z,99.99
2018-02-14T03:02:44.229Z,99.99
2018-02-14T03:03:44.224Z,99.99
2018-02-14T03:04:44.202Z,99.99
2018-02-14T03:05:44.173Z,99.99
2018-02-14T03:06:44.156Z,99.99
2018-02-14T03:07:44.135Z,99.99
2018-02-14T03:08:44.113Z,99.99
2018-02-14T03:09:44.095Z,99.99
2018-02-14T03:10:44.079Z,99.99
2018-02-14T03:11:43.809Z,99.99
2018-02-14T03:12:44.043Z,99.99
2018-02-14T03:13:44.021Z,99.99
2018-02-14T03:14:44.004Z,99.99
2018-02-14T03:15:43.988Z,99.99
2018-02-14T03:16:43.967Z,99.99
2018-02-14T03:17:43.693Z,99.99
2018-02-14T03:18:43.931Z,99.99
2018-02-14T03:19:43.913Z,99.99
2018-02-14T03:20:43.893Z,99.99
2018-02-14T03:21:43.879Z,99.99
2018-02-14T03:22:43.855Z,99.99
2018-02-14T03:23:43.835Z,99.99
2018-02-14T03:24:43.827Z,99.99
2018-02-14T03:25:43.802Z,99.99
2018-02-14T03:26:43.526Z,99.99
2018-02-14T03:27:43.765Z,99.99
2018-02-14T03:28:43.492Z,99.99
2018-02-14T03:29:43.727Z,99.99
2018-02-14T03:30:43.456Z,99.99
2018-02-14T03:31:43.685Z,99.99
2018-02-14T03:32:43.668Z,99.99
2018-02-14T03:33:43.397Z,99.99
2018-02-14T03:34:43.629Z,99.99
2018-02-14T03:35:43.613Z,99.99
2018-02-14T03:36:43.597Z,99.99
2018-02-14T03:37:43.320Z,99.99
2018-02-14T03:38:43.554Z,99.99
2018-02-14T03:39:43.536Z,99.99
2018-02-14T03:40:43.521Z,99.99
2018-02-14T03:41:43.245Z,99.99
2018-02-14T03:42:43.227Z,99.99
2018-02-14T03:43:43.467Z,99.99
2018-02-14T03:44:43.444Z,99.99
2018-02-14T03:45:43.425Z,99.99
2018-02-14T03:46:43.408Z,99.99
2018-02-14T03:47:43.390Z,99.99
2018-02-14T03:48:43.378Z,99.99
2018-02-14T03:49:43.349Z,99.99
2018-02-14T03:50:43.077Z,99.99
2018-02-14T03:51:43.312Z,99.99
2018-02-14T03:52:43.296Z,99.99
2018-02-14T03:53:43.276Z,99.99
2018-02-14T03:54:43.256Z,99.99
2018-02-14T03:55:43.240Z,99.99
2018-02-14T03:56:43.216Z,99.99
2018-02-14T03:57:43.204Z,99.99
2018-02-14T03:58:43.183Z,99.99
2018-02-14T03:59:42.911Z,99.99
2018-02-14T04:00:43.143Z,99.99
2018-02-14T04:01:43.127Z,99.99
2018-02-14T04:02:43.118Z,99.99
2018-02-14T04:03:43.089Z,99.99
2018-02-14T04:04:43.067Z,99.99
2018-02-14T04:05:42.796Z,99.99
2018-02-14T04:06:42.779Z,99.99
2018-02-14T04:07:43.012Z,99.99
2018-02-14T04:08:43.003Z,99.99
2018-02-14T04:09:42.974Z,99.99
2018-02-14T04:10:43.006Z,99.99
2018-02-14T04:11:42.685Z,99.99
2018-02-14T04:12:42.919Z,99.99
2018-02-14T04:13:42.647Z,99.99
2018-02-14T04:14:42.630Z,99.99
2018-02-14T04:15:42.862Z,99.99
2018-02-14T04:16:42.847Z,99.99
2018-02-14T04:17:42.825Z,99.99
2018-02-14T04:18:42.554Z,99.99
2018-02-14T04:19:42.790Z,99.99
2018-02-14T04:20:42.773Z,99.99
2018-02-14T04:21:42.751Z,99.99
2018-02-14T04:22:42.477Z,99.99
2018-02-14T04:23:42.710Z,99.99
2018-02-14T04:24:42.694Z,99.99
2018-02-14T04:25:42.674Z,99.99
2018-02-14T04:26:42.655Z,99.99
2018-02-14T04:27:42.639Z,99.99
2018-02-14T04:28:42.617Z,99.99
2018-02-14T04:29:42.603Z,99.99
2018-02-14T04:30:42.330Z,99.99
2018-02-14T04:31:42.566Z,99.99
2018-02-14T04:32:42.557Z,99.99
2018-02-14T04:33:42.526Z,99.99
2018-02-14T04:34:42.504Z,99.99
2018-02-14T04:35:42.486Z,99.99
2018-02-14T04:36:42.471Z,99.99
2018-02-14T04:37:42.449Z,99.99
2018-02-14T04:38:42.434Z,99.99
2018-02-14T04:39:42.414Z,99.99
2018-02-14T04:40:42.395Z,99.99
2018-02-14T04:41:42.377Z,99.99
2018-02-14T04:42:42.357Z,99.99
2018-02-14T04:43:42.336Z,99.99
2018-02-14T04:44:42.332Z,99.99
2018-02-14T04:45:42.304Z,99.99
2018-02-14T04:46:42.282Z,99.99
2018-02-14T04:47:42.264Z,99.99
2018-02-14T04:48:42.247Z,99.99
2018-02-14T04:49:42.263Z,99.99
2018-02-14T04:50:42.207Z,99.99
2018-02-14T04:51:42.186Z,99.99
2018-02-14T04:52:42.169Z,99.99
2018-02-14T04:53:42.152Z,99.99
2018-02-14T04:54:42.129Z,99.99
2018-02-14T04:55:42.115Z,99.99
2018-02-14T04:56:42.095Z,99.99
2018-02-14T04:57:42.078Z,99.99
2018-02-14T04:58:42.056Z,99.99
2018-02-14T04:59:42.042Z,99.99
2018-02-14T05:00:42.030Z,99.99
2018-02-14T05:01:42.005Z,99.99
2018-02-14T05:02:41.983Z,99.99
2018-02-14T05:03:41.963Z,99.99
2018-02-14T05:04:41.947Z,99.99
2018-02-14T05:05:41.927Z,99.99
2018-02-14T05:06:41.904Z,99.99
2018-02-14T05:07:41.891Z,99.99
2018-02-14T05:08:41.870Z,99.99
2018-02-14T05:09:41.851Z,99.99
2018-02-14T05:10:41.835Z,99.99
2018-02-14T05:11:41.818Z,99.99
2018-02-14T05:12:41.792Z,99.99
2018-02-14T05:13:41.531Z,99.99
2018-02-14T05:14:41.754Z,99.99
2018-02-14T05:15:41.738Z,99.99
2018-02-14T05:16:41.719Z,99.99
2018-02-14T05:17:41.447Z,99.99
2018-02-14T05:18:41.685Z,99.99
2018-02-14T05:19:41.409Z,99.99
2018-02-14T05:20:41.648Z,99.99
2018-02-14T05:21:41.371Z,99.99
2018-02-14T05:22:41.351Z,99.99
2018-02-14T05:23:41.332Z,99.99
2018-02-14T05:24:41.569Z,99.99
2018-02-14T05:25:41.548Z,99.99
2018-02-14T05:26:41.531Z,99.99
2018-02-14T05:27:41.256Z,99.99
2018-02-14T05:28:41.240Z,99.99
2018-02-14T05:29:41.473Z,99.99
2018-02-14T05:30:41.455Z,99.99
2018-02-14T05:31:41.448Z,99.99
2018-02-14T05:32:41.416Z,99.99
2018-02-14T05:33:41.397Z,99.99
2018-02-14T05:34:41.128Z,99.99
2018-02-14T05:35:41.360Z,99.99
2018-02-14T05:36:41.344Z,99.99
2018-02-14T05:37:41.325Z,99.99
2018-02-14T05:38:41.307Z,99.99
2018-02-14T05:39:41.289Z,99.99
2018-02-14T05:40:41.015Z,99.99
2018-02-14T05:41:41.248Z,99.99
2018-02-14T05:42:40.974Z,99.99
2018-02-14T05:43:41.210Z,99.99
2018-02-14T05:44:41.191Z,99.99
2018-02-14T05:45:40.921Z,99.99
2018-02-14T05:46:41.153Z,99.99
2018-02-14T05:47:40.883Z,99.99
2018-02-14T05:48:40.862Z,99.99
2018-02-14T05:49:41.097Z,99.99
2018-02-14T05:50:41.077Z,99.99
2018-02-14T05:51:41.060Z,99.99
2018-02-14T05:52:41.041Z,99.99
2018-02-14T05:53:41.025Z,99.99
2018-02-14T05:54:41.005Z,99.99
2018-02-14T05:55:40.734Z,99.99
2018-02-14T05:56:41.003Z,99.99
2018-02-14T05:57:40.694Z,99.99
2018-02-14T05:58:40.927Z,99.99
2018-02-14T05:59:40.910Z,99.99
2018-02-14T06:00:40.891Z,99.99
2018-02-14T06:01:40.872Z,99.99
2018-02-14T06:02:40.600Z,99.99
2018-02-14T06:03:40.831Z,99.99
2018-02-14T06:04:40.815Z,99.99
2018-02-14T06:05:40.797Z,99.99
2018-02-14T06:06:40.780Z,99.99
2018-02-14T06:07:40.505Z,99.99
2018-02-14T06:08:40.742Z,99.99
2018-02-14T06:09:40.727Z,99.99
2018-02-14T06:10:40.705Z,99.99
2018-02-14T06:11:40.685Z,99.99
2018-02-14T06:12:40.670Z,99.99
2018-02-14T06:13:40.393Z,99.99
2018-02-14T06:14:40.653Z,99.99
2018-02-14T06:15:40.607Z,99.99
2018-02-14T06:16:40.590Z,99.99
2018-02-14T06:17:40.571Z,99.99
2018-02-14T06:18:40.299Z,99.99
2018-02-14T06:19:55.204Z,99.99
2018-02-14T06:20:40.263Z,99.99
2018-02-14T06:21:40.508Z,99.99
2018-02-14T06:22:40.478Z,99.99
2018-02-14T06:23:40.463Z,99.99
2018-02-14T06:24:40.440Z,99.99
2018-02-14T06:25:40.422Z,99.99
2018-02-14T06:26:40.405Z,99.99
2018-02-14T06:27:40.386Z,99.99
2018-02-14T06:28:40.110Z,99.99
2018-02-14T06:29:40.344Z,99.99
2018-02-14T06:30:40.332Z,99.99
2018-02-14T06:31:40.308Z,99.99
2018-02-14T06:32:40.290Z,99.99
2018-02-14T06:33:40.270Z,99.99
2018-02-14T06:34:40.001Z,99.99
2018-02-14T06:35:39.979Z,99.99
2018-02-14T06:36:39.961Z,99.99
2018-02-14T06:37:40.197Z,99.99
2018-02-14T06:38:40.180Z,99.99
2018-02-14T06:39:40.158Z,99.99
2018-02-14T06:40:40.145Z,99.99
2018-02-14T06:41:40.120Z,99.99
2018-02-14T06:42:40.102Z,99.99
2018-02-14T06:43:40.089Z,99.99
2018-02-14T06:44:40.065Z,99.99
2018-02-14T06:45:40.048Z,99.99
2018-02-14T06:46:40.032Z,99.99
2018-02-14T06:47:40.017Z,99.99
2018-02-14T06:48:39.739Z,99.99
2018-02-14T06:49:39.973Z,99.99
2018-02-14T06:50:39.958Z,99.99
2018-02-14T06:51:39.941Z,99.99
2018-02-14T06:52:39.916Z,99.99
2018-02-14T06:53:39.901Z,99.99
2018-02-14T06:54:39.881Z,99.99
2018-02-14T06:55:39.863Z,99.99
2018-02-14T06:56:39.849Z,99.99
2018-02-14T06:57:39.572Z,99.99
2018-02-14T06:58:39.807Z,99.99
2018-02-14T06:59:39.787Z,99.99
2018-02-14T07:00:39.770Z,99.99
2018-02-14T07:01:39.753Z,99.99
2018-02-14T07:02:39.734Z,99.99
2018-02-14T07:03:39.714Z,99.99
2018-02-14T07:04:39.743Z,99.99
2018-02-14T07:05:39.426Z,99.99
2018-02-14T07:06:39.662Z,99.84
2018-02-14T07:07:39.645Z,99.99
2018-02-14T07:08:39.626Z,99.99
2018-02-14T07:09:39.354Z,99.94
2018-02-14T07:10:39.336Z,99.99
2018-02-14T07:11:39.580Z,99.65
2018-02-14T07:12:39.556Z,99.65
2018-02-14T07:13:39.287Z,99.14
2018-02-14T07:14:39.522Z,99.61
2018-02-14T07:15:39.508Z,98.85
2018-02-14T07:16:39.490Z,99.14
2018-02-14T07:17:39.471Z,98.76
2018-02-14T07:18:39.462Z,98.95
2018-02-14T07:19:39.442Z,98.28
2018-02-14T07:20:39.429Z,98.28
2018-02-14T07:21:39.409Z,98.1
2018-02-14T07:22:39.444Z,97.96
2018-02-14T07:23:39.374Z,97.58
2018-02-14T07:24:39.102Z,97.39
2018-02-14T07:25:39.384Z,97.11
2018-02-14T07:26:39.072Z,96.73
2018-02-14T07:27:39.308Z,97.11
2018-02-14T07:28:39.292Z,96.73
2018-02-14T07:29:39.281Z,96.64
2018-02-14T07:30:39.262Z,95.97
2018-02-14T07:31:39.002Z,96.07
2018-02-14T07:32:38.981Z,95.88
2018-02-14T07:33:39.249Z,95.59
2018-02-14T07:34:39.201Z,95.5
2018-02-14T07:35:39.209Z,95.5
2018-02-14T07:36:39.169Z,95.31
2018-02-14T07:37:38.900Z,95.4
2018-02-14T07:38:39.138Z,95.69
2018-02-14T07:39:39.123Z,95.5
2018-02-14T07:40:39.146Z,95.69
2018-02-14T07:41:39.093Z,95.69
2018-02-14T07:42:39.088Z,95.78
2018-02-14T07:43:39.075Z,94.93
2018-02-14T07:44:38.797Z,95.12
2018-02-14T07:45:39.034Z,95.31
2018-02-14T07:46:38.767Z,94.93
2018-02-14T07:47:39.002Z,94.93
2018-02-14T07:48:39.000Z,94.93
2018-02-14T07:49:38.972Z,95.5
2018-02-14T07:50:38.958Z,94.93
2018-02-14T07:51:38.943Z,95.12
2018-02-14T07:52:38.930Z,95.12
2018-02-14T07:53:38.911Z,94.93
2018-02-14T07:54:38.644Z,94.93
2018-02-14T07:55:38.892Z,95.21
2018-02-14T07:56:38.900Z,95.17
2018-02-14T07:57:38.896Z,95.17
2018-02-14T07:58:38.836Z,94.89
2018-02-14T07:59:38.833Z,95.36
2018-02-14T08:00:38.836Z,94.89
2018-02-14T08:01:38.789Z,95.17
2018-02-14T08:02:38.774Z,95.07
2018-02-14T08:03:38.759Z,94.98
2018-02-14T08:04:38.488Z,94.98
2018-02-14T08:05:38.477Z,95.07
2018-02-14T08:06:38.717Z,95.07
2018-02-14T08:07:38.727Z,94.98
2018-02-14T08:08:38.680Z,94.79
2018-02-14T08:09:38.673Z,94.79
2018-02-14T08:10:38.661Z,95.17
2018-02-14T08:11:38.656Z,94.98
2018-02-14T08:12:38.625Z,94.89
2018-02-14T08:13:38.351Z,95.07
2018-02-14T08:14:38.666Z,94.98
2018-02-14T08:15:38.605Z,94.98
2018-02-14T08:16:38.309Z,95.07
2018-02-14T08:17:38.543Z,95.17
2018-02-14T08:18:38.529Z,95.07
2018-02-14T08:19:38.508Z,95.17
2018-02-14T08:20:38.499Z,95.17
2018-02-14T08:21:38.485Z,94.89
2018-02-14T08:22:38.476Z,94.79
2018-02-14T08:23:38.449Z,94.98
2018-02-14T08:24:38.441Z,94.98
2018-02-14T08:25:38.423Z,95.36
2018-02-14T08:26:38.401Z,95.55
2018-02-14T08:27:38.389Z,95.07
2018-02-14T08:28:38.372Z,95.17
2018-02-14T08:29:38.363Z,95.55
2018-02-14T08:30:38.338Z,95.36
2018-02-14T08:31:38.331Z,95.45
2018-02-14T08:32:38.308Z,95.45
2018-02-14T08:33:38.293Z,95.83
2018-02-14T08:34:38.275Z,95.74
2018-02-14T08:35:38.272Z,95.74
2018-02-14T08:36:38.244Z,95.64
2018-02-14T08:37:38.249Z,96.02
2018-02-14T08:38:38.213Z,96.12
2018-02-14T08:39:38.202Z,96.12
2018-02-14T08:40:37.930Z,96.4
2018-02-14T08:41:38.167Z,96.21
2018-02-14T08:42:38.151Z,96.12
2018-02-14T08:43:38.141Z,96.12
2018-02-14T08:44:38.123Z,96.4
2018-02-14T08:45:37.859Z,96.4
2018-02-14T08:46:38.092Z,96.31
2018-02-14T08:47:38.086Z,96.4
2018-02-14T08:48:38.059Z,96.4
2018-02-14T08:49:38.046Z,96.12
2018-02-14T08:50:38.033Z,96.02
2018-02-14T08:51:38.016Z,95.83
2018-02-14T08:52:38.014Z,95.93
2018-02-14T08:53:37.983Z,96.35
2018-02-14T08:54:37.716Z,96.26
2018-02-14T08:55:38.204Z,96.07
2018-02-14T08:56:37.940Z,96.16
2018-02-14T08:57:37.924Z,96.26
2018-02-14T08:58:38.114Z,95.97
2018-02-14T08:59:37.639Z,95.88
2018-02-14T09:00:37.878Z,96.54
2018-02-14T09:01:37.864Z,96.35
2018-02-14T09:02:37.883Z,96.45
2018-02-14T09:03:37.833Z,95.69
2018-02-14T09:04:37.817Z,96.07
2018-02-14T09:05:37.810Z,95.5
2018-02-14T09:06:37.788Z,95.4
2018-02-14T09:07:37.779Z,95.69
2018-02-14T09:08:37.756Z,95.31
2018-02-14T09:09:37.744Z,95.4
2018-02-14T09:10:37.739Z,95.88
2018-02-14T09:11:37.752Z,95.78
2018-02-14T09:12:37.700Z,95.78
2018-02-14T09:13:37.438Z,95.69
2018-02-14T09:14:37.665Z,95.59
2018-02-14T09:15:37.661Z,95.69
2018-02-14T09:16:37.385Z,95.21
2018-02-14T09:17:37.626Z,95.21
2018-02-14T09:18:37.355Z,95.21
2018-02-14T09:19:37.590Z,94.84
2018-02-14T09:20:37.577Z,95.21
2018-02-14T09:21:37.309Z,95.31
2018-02-14T09:22:37.292Z,95.31
2018-02-14T09:23:37.531Z,95.21
2018-02-14T09:24:37.515Z,95.03
2018-02-14T09:25:37.499Z,95.36
2018-02-14T09:26:37.743Z,94.84
2018-02-14T09:27:37.472Z,95.07
2018-02-14T09:28:37.458Z,95.07
2018-02-14T09:29:37.443Z,95.36
2018-02-14T09:30:37.172Z,94.89
2018-02-14T09:31:37.413Z,95.26
2018-02-14T09:32:37.402Z,95.45
2018-02-14T09:33:37.132Z,95.07
2018-02-14T09:34:37.369Z,95.07
2018-02-14T09:35:37.356Z,95.07
2018-02-14T09:36:37.355Z,94.89
2018-02-14T09:37:37.326Z,95.26
2018-02-14T09:38:37.058Z,95.17
2018-02-14T09:39:37.046Z,95.17
2018-02-14T09:40:37.283Z,94.7
2018-02-14T09:41:37.274Z,94.7
2018-02-14T09:42:37.249Z,94.51
2018-02-14T09:43:37.236Z,94.6
2018-02-14T09:44:37.243Z,94.51
2018-02-14T09:45:37.214Z,93.75
2018-02-14T09:46:37.193Z,94.32
2018-02-14T09:47:37.178Z,93.84
2018-02-14T09:48:37.163Z,93.65
2018-02-14T09:49:37.153Z,93.56
2018-02-14T09:50:37.166Z,93.89
2018-02-14T09:51:36.897Z,93.37
2018-02-14T09:52:36.859Z,93.56
2018-02-14T09:53:37.102Z,93.61
2018-02-14T09:54:37.081Z,93.13
2018-02-14T09:55:36.837Z,93.13
2018-02-14T09:56:37.052Z,93.13
2018-02-14T09:57:37.051Z,93.13
2018-02-14T09:58:37.021Z,93.23
2018-02-14T09:59:37.012Z,93.32
2018-02-14T10:00:36.741Z,93.13
2018-02-14T10:01:36.991Z,93.42
2018-02-14T10:02:36.982Z,92.85
2018-02-14T10:03:36.957Z,93.13
2018-02-14T10:04:36.940Z,93.32
2018-02-14T10:05:36.926Z,93.04
2018-02-14T10:06:36.986Z,92.94
2018-02-14T10:07:36.900Z,92.76
2018-02-14T10:08:36.892Z,92.76
2018-02-14T10:09:36.865Z,92.57
2018-02-14T10:10:36.857Z,92.66
2018-02-14T10:11:36.843Z,92.38
2018-02-14T10:12:36.825Z,92.38
2018-02-14T10:13:36.813Z,92.47
2018-02-14T10:14:36.794Z,92.76
2018-02-14T10:15:36.782Z,92.66
2018-02-14T10:16:36.773Z,92.38
2018-02-14T10:17:36.751Z,91.62
2018-02-14T10:18:36.738Z,91.71
2018-02-14T10:19:36.724Z,92
2018-02-14T10:20:36.466Z,92.28
2018-02-14T10:21:36.697Z,91.62
2018-02-14T10:22:36.683Z,92.09
2018-02-14T10:23:36.671Z,91.81
2018-02-14T10:24:36.659Z,91.71
2018-02-14T10:25:36.644Z,91.9
2018-02-14T10:26:36.625Z,91.9
2018-02-14T10:27:36.624Z,91.71
2018-02-14T10:28:36.346Z,92
2018-02-14T10:29:36.585Z,91.71
2018-02-14T10:30:36.571Z,92
2018-02-14T10:31:36.306Z,92.09
2018-02-14T10:32:36.553Z,92
2018-02-14T10:33:36.532Z,91.33
2018-02-14T10:34:36.516Z,91.62
2018-02-14T10:35:36.506Z,91.81
2018-02-14T10:36:36.491Z,91.43
2018-02-14T10:37:36.474Z,91.47
2018-02-14T10:38:36.459Z,91.57
2018-02-14T10:39:36.192Z,91.47
2018-02-14T10:40:36.450Z,91.57
2018-02-14T10:41:36.164Z,91.09
2018-02-14T10:42:36.407Z,91.38
2018-02-14T10:43:36.398Z,91.09
2018-02-14T10:44:36.124Z,91.19
2018-02-14T10:45:36.370Z,90.43
2018-02-14T10:46:36.349Z,90.62
2018-02-14T10:47:36.335Z,90.81
2018-02-14T10:48:36.335Z,90.43
2018-02-14T10:49:36.310Z,90.43
2018-02-14T10:50:36.301Z,90.53
2018-02-14T10:51:36.281Z,90.53
2018-02-14T10:52:36.268Z,90.05
2018-02-14T10:53:36.288Z,90.62
2018-02-14T10:54:36.241Z,90.15
2018-02-14T10:55:36.228Z,90.15
2018-02-14T10:56:36.213Z,90.15
2018-02-14T10:57:36.203Z,90.43
2018-02-14T10:58:36.191Z,89.67
2018-02-14T10:59:36.189Z,89.58
2018-02-14T11:00:36.168Z,90.05
2018-02-14T11:01:36.148Z,89.86
2018-02-14T11:02:36.135Z,89.72
2018-02-14T11:03:36.123Z,89.58
2018-02-14T11:04:36.115Z,90
2018-02-14T11:05:36.097Z,89.72
2018-02-14T11:06:36.091Z,89.62
2018-02-14T11:07:35.827Z,89.43
2018-02-14T11:08:36.086Z,89.25
2018-02-14T11:09:36.041Z,89.25
2018-02-14T11:10:36.030Z,88.87
2018-02-14T11:11:35.763Z,88.87
2018-02-14T11:12:36.003Z,88.77
2018-02-14T11:13:35.997Z,88.29
2018-02-14T11:14:35.976Z,88.2
2018-02-14T11:15:35.972Z,87.63
2018-02-14T11:16:35.699Z,87.63
2018-02-14T11:17:35.684Z,87.82
2018-02-14T11:18:35.930Z,88.1
2018-02-14T11:19:35.912Z,88.01
2018-02-14T11:20:35.657Z,87.16
2018-02-14T11:21:35.887Z,87.35
2018-02-14T11:22:35.920Z,87.63
2018-02-14T11:23:35.859Z,86.87
2018-02-14T11:24:35.850Z,87.35
2018-02-14T11:25:35.913Z,86.78
2018-02-14T11:26:35.579Z,86.72
2018-02-14T11:27:35.810Z,86.78
2018-02-14T11:28:35.807Z,87.16
2018-02-14T11:29:35.799Z,86.68
2018-02-14T11:30:35.770Z,86.54
2018-02-14T11:31:36.009Z,85.59
2018-02-14T11:32:35.749Z,84.92
2018-02-14T11:33:35.735Z,85.02
2018-02-14T11:34:35.467Z,85.07
2018-02-14T11:35:35.709Z,84.5
2018-02-14T11:36:35.440Z,84.59
2018-02-14T11:37:35.429Z,84.59
2018-02-14T11:38:35.416Z,84.83
2018-02-14T11:39:35.653Z,84.55
2018-02-14T11:40:35.649Z,84.36
2018-02-14T11:41:35.683Z,84.36
2018-02-14T11:42:35.631Z,85.59
2018-02-14T11:43:35.611Z,84.69
2018-02-14T11:44:35.596Z,84.59
2018-02-14T11:45:35.582Z,83.88
2018-02-14T11:46:35.585Z,83.65
2018-02-14T11:47:35.554Z,83.97
2018-02-14T11:48:35.542Z,83.94
2018-02-14T11:49:35.547Z,83.74
2018-02-14T11:50:35.264Z,83.74
2018-02-14T11:51:35.506Z,84.03
2018-02-14T11:52:35.492Z,83.78
2018-02-14T11:53:35.226Z,83.97
2018-02-14T11:54:35.483Z,83.97
2018-02-14T11:55:35.492Z,83.88
2018-02-14T11:56:35.442Z,84.07
2018-02-14T11:57:35.175Z,83.22
2018-02-14T11:58:35.418Z,83.03
2018-02-14T11:59:35.149Z,82.93
2018-02-14T12:00:35.391Z,83.03
2018-02-14T12:01:35.382Z,83.03
2018-02-14T12:02:35.614Z,83.12
2018-02-14T12:03:35.353Z,82.93
2018-02-14T12:04:35.346Z,81.93
2018-02-14T12:05:35.346Z,81.65
2018-02-14T12:06:35.321Z,81.26
2018-02-14T12:07:35.306Z,81.17
2018-02-14T12:08:35.300Z,80.55
2018-02-14T12:09:35.281Z,80.07
2018-02-14T12:10:35.286Z,79.31
2018-02-14T12:11:35.003Z,78.36
2018-02-14T12:12:35.247Z,77.64
2018-02-14T12:13:35.233Z,77.36
2018-02-14T12:14:34.971Z,76.88
2018-02-14T12:15:35.211Z,76.97
2018-02-14T12:16:35.215Z,76.25
2018-02-14T12:17:35.189Z,76.06
2018-02-14T12:18:35.180Z,75.49
2018-02-14T12:19:35.165Z,74.35
2018-02-14T12:20:35.156Z,74.26
2018-02-14T12:21:35.146Z,74.1
2018-02-14T12:22:35.134Z,73.82
2018-02-14T12:23:35.122Z,73.06
2018-02-14T12:24:35.120Z,72.86
2018-02-14T12:25:35.103Z,71.34
2018-02-14T12:26:35.092Z,70.72
2018-02-14T12:27:35.084Z,70.05
2018-02-14T12:28:35.119Z,69.57
2018-02-14T12:29:35.067Z,68.9
2018-02-14T12:30:34.801Z,68.9
2018-02-14T12:31:35.046Z,68.05
2018-02-14T12:32:35.047Z,68.43
2018-02-14T12:33:35.275Z,67.95
2018-02-14T12:34:35.014Z,67.7
2018-02-14T12:35:34.750Z,66.85
2018-02-14T12:36:34.745Z,66.18
2018-02-14T12:37:34.746Z,66.08
2018-02-14T12:38:35.030Z,65.51
2018-02-14T12:39:34.972Z,65.23
2018-02-14T12:40:34.963Z,65.32
2018-02-14T12:41:34.950Z,65.32
2018-02-14T12:42:34.942Z,65.23
2018-02-14T12:43:34.939Z,65.32
2018-02-14T12:44:34.669Z,65.32
2018-02-14T12:45:34.919Z,65.51
2018-02-14T12:46:34.651Z,64.37
2018-02-14T12:47:34.896Z,64.65
2018-02-14T12:48:34.893Z,64.56
2018-02-14T12:49:34.881Z,64.65
2018-02-14T12:50:34.876Z,64.75
2018-02-14T12:51:34.867Z,64.81
2018-02-14T12:52:34.597Z,64.9
2018-02-14T12:53:34.839Z,65.1
2018-02-14T12:54:34.842Z,64.24